Time;durP1;ratioP1;P1;durP2;ratioP2;P2;SDS_P1;SDS_P2;PMS_P1;PMS_P2;Temp;Humidity;BMP_temperature;BMP_pressure;BME280_temperature;BME280_humidity;BME280_pressure;Samples;Min_cycle;Max_cycle;Signal;HPM_P1;HPM_P2
2021/09/04 00:00:07;;;;;;;2.10;1.20;;;;;;;12.56;52.55;100944.38;5023846;28;20026;-72
2021/09/04 00:02:32;;;;;;;3.58;2.22;;;;;;;12.51;52.56;100944.41;5024961;28;20036;-70
2021/09/04 00:04:58;;;;;;;2.15;1.25;;;;;;;12.50;52.53;100945.28;5025527;28;20022;-70
2021/09/04 00:07:27;;;;;;;3.13;1.20;;;;;;;12.50;52.77;100940.09;5025253;28;20489;-70
2021/09/04 00:09:53;;;;;;;3.45;1.45;;;;;;;12.50;52.79;100946.16;5025402;28;20086;-69
2021/09/04 00:12:18;;;;;;;2.58;1.27;;;;;;;12.50;52.83;100942.69;5025230;28;20025;-69
2021/09/04 00:14:43;;;;;;;2.60;1.13;;;;;;;12.54;52.69;100947.00;5025216;28;20043;-69
2021/09/04 00:17:09;;;;;;;2.78;1.42;;;;;;;12.55;52.83;100940.94;5024846;28;20022;-70
2021/09/04 00:19:34;;;;;;;2.30;1.20;;;;;;;12.60;52.91;100952.16;5023901;28;20550;-70
2021/09/04 00:21:59;;;;;;;2.50;1.23;;;;;;;12.64;52.57;100948.66;5025086;28;20045;-69
2021/09/04 00:24:25;;;;;;;3.45;1.20;;;;;;;12.64;52.60;100950.38;5025003;28;20052;-69
2021/09/04 00:26:50;;;;;;;2.60;1.20;;;;;;;12.61;52.57;100943.47;5024076;28;20128;-70
2021/09/04 00:29:16;;;;;;;2.63;1.30;;;;;;;12.64;52.94;100946.06;5024830;28;20049;-69
2021/09/04 00:31:41;;;;;;;1.85;1.17;;;;;;;12.64;52.78;100942.56;5024605;28;20390;-68
2021/09/04 00:34:06;;;;;;;2.70;1.15;;;;;;;12.59;53.02;100946.94;5025108;28;20037;-68
2021/09/04 00:36:32;;;;;;;2.55;1.20;;;;;;;12.60;53.10;100948.69;5024687;28;20050;-70
2021/09/04 00:38:57;;;;;;;2.42;1.02;;;;;;;12.57;53.32;100953.94;5024716;28;20022;-68
2021/09/04 00:41:23;;;;;;;5.55;1.52;;;;;;;12.50;53.24;100943.56;5024663;28;20276;-69
2021/09/04 00:43:49;;;;;;;2.03;1.20;;;;;;;12.57;53.20;100959.97;5024668;28;20028;-69
2021/09/04 00:46:15;;;;;;;2.97;1.10;;;;;;;12.55;53.25;100964.38;5024507;28;20092;-70
2021/09/04 00:48:41;;;;;;;2.03;1.33;;;;;;;12.51;53.24;100950.50;5024347;28;20034;-69
2021/09/04 00:51:07;;;;;;;1.60;0.90;;;;;;;12.55;53.18;100966.97;5024508;28;20032;-70
2021/09/04 00:53:33;;;;;;;2.53;1.25;;;;;;;12.54;53.35;100966.97;5024403;28;20033;-69
2021/09/04 00:55:59;;;;;;;2.88;1.20;;;;;;;12.54;53.28;100967.81;5024377;28;20026;-69
2021/09/04 00:58:25;;;;;;;2.15;1.20;;;;;;;12.51;53.18;100970.44;5024555;28;20029;-69
2021/09/04 01:00:52;;;;;;;2.50;1.30;;;;;;;12.46;53.14;100967.03;5022861;28;20072;-69
2021/09/04 01:03:18;;;;;;;2.55;1.30;;;;;;;12.44;53.05;100968.78;5024226;28;20017;-68
2021/09/04 01:05:47;;;;;;;4.25;1.30;;;;;;;12.43;53.15;100969.66;5024419;28;20033;-69
2021/09/04 01:08:13;;;;;;;1.83;0.98;;;;;;;12.41;53.26;100963.59;5024502;28;20026;-69
2021/09/04 01:10:39;;;;;;;1.70;1.00;;;;;;;12.41;53.34;100968.81;5024241;28;20053;-69
2021/09/04 01:13:04;;;;;;;3.70;1.10;;;;;;;12.38;53.32;100967.94;5024176;28;20034;-70
2021/09/04 01:15:30;;;;;;;2.05;1.10;;;;;;;12.36;53.39;100972.28;5024175;28;20557;-70
2021/09/04 01:18:00;;;;;;;3.45;1.70;;;;;;;12.30;53.43;100963.69;5023890;28;20057;-70
2021/09/04 01:20:25;;;;;;;2.53;1.20;;;;;;;12.35;53.53;100964.47;5024213;28;20065;-70
2021/09/04 01:23:12;;;;;;;3.22;1.48;;;;;;;12.36;53.63;100966.22;5024036;28;20049;-70
2021/09/04 01:25:41;;;;;;;1.98;1.10;;;;;;;12.34;53.64;100968.84;5022026;28;20033;-69
2021/09/04 01:28:07;;;;;;;1.75;1.05;;;;;;;12.32;54.03;100974.91;5023742;28;20025;-69
2021/09/04 01:30:33;;;;;;;2.17;1.20;;;;;;;12.28;54.27;100974.09;5022488;28;20025;-69
2021/09/04 01:32:58;;;;;;;3.53;1.40;;;;;;;12.24;54.26;100965.44;5023611;28;20040;-69
2021/09/04 01:35:25;;;;;;;1.90;1.10;;;;;;;12.24;54.53;100970.63;5023702;28;20022;-70
2021/09/04 01:37:51;;;;;;;2.28;1.25;;;;;;;12.22;54.73;100974.13;5021897;28;20110;-69
2021/09/04 01:40:18;;;;;;;2.70;1.30;;;;;;;12.20;54.99;100973.28;5022333;28;20044;-70
2021/09/04 01:42:44;;;;;;;4.13;1.35;;;;;;;12.16;55.23;100974.19;5023519;28;20053;-69
2021/09/04 01:45:11;;;;;;;2.97;1.40;;;;;;;12.16;55.16;100974.19;5023751;28;20052;-70
2021/09/04 01:47:36;;;;;;;2.75;1.33;;;;;;;12.13;55.44;100975.91;5023429;28;20113;-69
2021/09/04 01:50:03;;;;;;;2.55;1.42;;;;;;;12.10;55.39;100975.94;5023588;28;20018;-69
2021/09/04 01:52:29;;;;;;;2.15;1.17;;;;;;;12.09;55.64;100971.59;5023587;28;20022;-69
2021/09/04 01:54:54;;;;;;;1.73;1.20;;;;;;;12.06;55.43;100974.16;5005853;28;20040;-69
2021/09/04 01:57:20;;;;;;;3.20;1.63;;;;;;;12.08;55.82;100977.66;5023495;28;20021;-70
2021/09/04 01:59:46;;;;;;;2.00;1.05;;;;;;;12.10;55.71;100981.16;5023606;28;20026;-69
2021/09/04 02:02:12;;;;;;;3.33;1.40;;;;;;;12.05;55.73;100977.66;5023358;28;20036;-69
2021/09/04 02:04:37;;;;;;;3.10;1.42;;;;;;;12.08;55.93;100982.88;5023619;28;20026;-69
2021/09/04 02:07:03;;;;;;;3.67;1.60;;;;;;;12.07;55.90;100978.53;5023795;28;20050;-69
2021/09/04 02:09:29;;;;;;;4.38;1.30;;;;;;;12.07;55.94;100981.13;5023337;28;20026;-69
2021/09/04 02:11:54;;;;;;;3.90;1.33;;;;;;;12.06;55.91;100983.75;5023444;28;20037;-70
2021/09/04 02:14:20;;;;;;;3.05;1.30;;;;;;;12.03;56.02;100977.66;5023343;28;20053;-69
2021/09/04 02:16:46;;;;;;;2.65;1.20;;;;;;;12.02;55.74;100982.88;5023164;28;20085;-70
2021/09/04 02:19:11;;;;;;;2.88;1.60;;;;;;;12.06;56.11;100983.75;5023255;28;20072;-69
2021/09/04 02:21:37;;;;;;;2.55;1.50;;;;;;;12.07;56.03;100985.47;5023362;28;20462;-69
2021/09/04 02:24:02;;;;;;;2.50;1.05;;;;;;;12.11;55.40;100984.59;5023317;28;20105;-69
2021/09/04 02:26:28;;;;;;;1.67;1.10;;;;;;;12.14;55.50;100980.25;5023145;28;20030;-69
2021/09/04 02:28:55;;;;;;;2.55;1.55;;;;;;;12.19;55.67;100974.16;5021944;28;20513;-69
2021/09/04 02:31:23;;;;;;;3.00;1.55;;;;;;;12.21;55.60;100985.41;5023398;28;20050;-70
2021/09/04 02:33:50;;;;;;;3.20;1.30;;;;;;;12.22;55.60;100976.75;5021846;28;20026;-69
2021/09/04 02:36:15;;;;;;;2.63;1.30;;;;;;;12.23;55.74;100979.34;5022662;28;20054;-70
2021/09/04 02:38:40;;;;;;;2.78;1.58;;;;;;;12.25;55.79;100979.31;5023118;28;20125;-70
2021/09/04 02:41:06;;;;;;;2.45;1.60;;;;;;;12.24;55.68;100978.44;5022811;28;20057;-70
2021/09/04 02:43:31;;;;;;;2.33;1.40;;;;;;;12.26;55.66;100981.03;5023084;28;20018;-70
2021/09/04 02:45:57;;;;;;;2.88;1.20;;;;;;;12.25;55.67;100993.19;5022869;28;20390;-70
2021/09/04 02:48:22;;;;;;;2.63;1.25;;;;;;;12.21;55.69;101001.91;5023167;28;20025;-70
2021/09/04 02:50:47;;;;;;;3.10;1.17;;;;;;;12.21;55.76;100993.22;5026559;28;20026;-69
2021/09/04 02:53:13;;;;;;;2.10;1.13;;;;;;;12.20;55.49;100989.78;5025385;28;20026;-68
2021/09/04 02:55:38;;;;;;;1.90;1.10;;;;;;;12.16;55.35;101000.22;5026483;28;20022;-69
2021/09/04 02:58:03;;;;;;;2.15;1.30;;;;;;;12.17;55.52;101002.81;5026347;28;20030;-68
2021/09/04 03:00:29;;;;;;;3.10;1.15;;;;;;;12.21;55.28;101001.91;5026614;28;20038;-69
2021/09/04 03:02:55;;;;;;;6.88;1.10;;;;;;;12.20;55.26;101001.91;5026333;28;20518;-69
2021/09/04 03:05:24;;;;;;;2.25;1.02;;;;;;;12.17;55.17;100999.31;5025077;28;20029;-69
2021/09/04 03:07:49;;;;;;;2.33;0.98;;;;;;;12.24;55.15;101009.69;5026372;28;20025;-70
2021/09/04 03:10:15;;;;;;;2.42;1.25;;;;;;;12.24;55.21;101003.59;5026545;28;20026;-69
2021/09/04 03:12:40;;;;;;;2.35;1.20;;;;;;;12.11;55.14;100990.66;5025184;28;20026;-69
2021/09/04 03:15:06;;;;;;;1.88;0.98;;;;;;;12.11;55.26;100987.19;5024764;28;20048;-68
2021/09/04 03:17:31;;;;;;;2.22;1.25;;;;;;;12.25;55.19;101016.63;5026005;28;20048;-69
2021/09/04 03:19:57;;;;;;;3.38;1.25;;;;;;;12.09;55.21;100994.16;5026215;28;20116;-69
2021/09/04 03:22:22;;;;;;;3.45;1.20;;;;;;;12.28;55.20;101023.56;5026257;28;20044;-69
2021/09/04 03:24:47;;;;;;;2.25;1.30;;;;;;;12.27;54.83;101030.50;5026061;28;20032;-69
2021/09/04 03:27:13;;;;;;;2.40;1.20;;;;;;;12.27;54.94;101029.63;5026028;28;20089;-69
2021/09/04 03:29:38;;;;;;;2.97;1.25;;;;;;;12.12;54.60;101008.00;5025328;28;20014;-69
2021/09/04 03:32:04;;;;;;;2.15;1.25;;;;;;;12.18;54.74;101014.06;5025902;28;20034;-68
2021/09/04 03:34:29;;;;;;;2.00;1.10;;;;;;;12.26;54.78;101025.31;5024631;28;20026;-69
2021/09/04 03:36:54;;;;;;;2.50;1.20;;;;;;;12.26;54.71;101026.19;5025554;28;20077;-69
2021/09/04 03:39:20;;;;;;;3.35;1.17;;;;;;;12.30;54.80;101039.19;5025822;28;20029;-69
2021/09/04 03:41:45;;;;;;;1.80;1.02;;;;;;;12.27;54.67;101032.22;5025627;28;20052;-68
2021/09/04 03:44:10;;;;;;;2.15;1.13;;;;;;;12.29;54.75;101038.31;5025831;28;20026;-68
2021/09/04 03:46:36;;;;;;;2.25;1.08;;;;;;;12.15;54.81;101020.16;5025687;28;20454;-69
2021/09/04 03:49:02;;;;;;;1.90;1.17;;;;;;;12.22;54.50;101026.19;5025447;28;20025;-69
2021/09/04 03:51:28;;;;;;;2.30;1.35;;;;;;;12.31;54.58;101046.97;5025355;28;20022;-69
2021/09/04 03:53:53;;;;;;;2.13;1.20;;;;;;;12.28;54.60;101039.19;5025603;28;20032;-68
2021/09/04 03:56:18;;;;;;;2.42;1.13;;;;;;;12.31;54.48;101049.59;5025383;28;20030;-68
2021/09/04 03:58:44;;;;;;;3.13;1.20;;;;;;;12.31;54.67;101054.78;5025738;28;20029;-68
2021/09/04 04:01:09;;;;;;;1.90;0.90;;;;;;;12.32;54.56;101053.91;5024061;28;20026;-69
2021/09/04 04:03:35;;;;;;;6.05;1.52;;;;;;;12.23;54.55;101040.94;5025201;28;20045;-70
2021/09/04 04:06:00;;;;;;;2.25;1.17;;;;;;;12.31;54.45;101060.00;5025181;28;20458;-69
2021/09/04 04:08:25;;;;;;;3.25;1.13;;;;;;;12.33;54.55;101060.81;5024074;28;20036;-69
2021/09/04 04:10:51;;;;;;;2.03;1.17;;;;;;;12.33;54.62;101054.78;5025626;28;20029;-69
2021/09/04 04:13:16;;;;;;;1.85;0.90;;;;;;;12.40;54.56;101066.88;5025405;28;20081;-69
2021/09/04 04:15:41;;;;;;;4.32;1.23;;;;;;;12.42;54.49;101069.47;5025024;28;20466;-69
2021/09/04 04:18:07;;;;;;;2.35;1.10;;;;;;;12.41;54.27;101073.84;5023569;28;20033;-69
2021/09/04 04:20:32;;;;;;;1.90;1.02;;;;;;;12.38;54.30;101076.47;5025108;28;20025;-69
2021/09/04 04:22:57;;;;;;;2.63;1.10;;;;;;;12.32;54.44;101071.25;5024807;28;20032;-70
2021/09/04 04:25:23;;;;;;;2.90;1.38;;;;;;;12.27;54.45;101073.88;5025080;28;20564;-70
2021/09/04 04:27:48;;;;;;;2.05;1.02;;;;;;;12.27;54.69;101074.75;5024782;28;20017;-70
2021/09/04 04:30:13;;;;;;;4.35;1.20;;;;;;;12.37;54.73;101080.78;5023490;28;20084;-69
2021/09/04 04:32:39;;;;;;;1.50;1.13;;;;;;;12.49;54.64;101074.63;5024604;28;20033;-70
2021/09/04 04:35:05;;;;;;;2.10;1.17;;;;;;;12.62;54.64;101078.03;5024795;28;20500;-70
2021/09/04 04:37:30;;;;;;;2.75;1.33;;;;;;;12.75;54.25;101077.94;5024330;28;20053;-71
2021/09/04 04:39:55;;;;;;;1.92;1.13;;;;;;;12.73;54.32;101077.13;5024606;28;20029;-71
2021/09/04 04:42:21;;;;;;;1.60;1.10;;;;;;;12.69;53.91;101080.59;5024775;28;20450;-70
2021/09/04 04:44:46;;;;;;;2.83;1.10;;;;;;;12.63;53.90;101078.91;5024551;28;20044;-71
2021/09/04 04:47:11;;;;;;;3.25;1.13;;;;;;;12.63;53.85;101089.34;5024177;28;20036;-71
2021/09/04 04:49:37;;;;;;;2.53;1.35;;;;;;;12.60;53.61;101082.38;5024635;28;20129;-71
2021/09/04 04:52:02;;;;;;;2.53;1.20;;;;;;;12.62;53.87;101088.47;5024193;28;20025;-71
2021/09/04 04:54:28;;;;;;;2.08;1.20;;;;;;;12.61;53.99;101086.72;5024596;28;20117;-71
2021/09/04 04:56:53;;;;;;;3.97;1.23;;;;;;;12.62;54.00;101088.47;5024335;28;20032;-71
2021/09/04 04:59:19;;;;;;;3.25;1.10;;;;;;;12.62;54.10;101098.03;5024558;28;20458;-71
2021/09/04 05:01:44;;;;;;;2.33;1.20;;;;;;;12.62;54.05;101098.03;5024386;28;20414;-70
2021/09/04 05:04:09;;;;;;;2.20;1.17;;;;;;;12.68;54.37;101097.13;5024141;28;20040;-70
2021/09/04 05:06:35;;;;;;;3.40;1.38;;;;;;;12.71;54.43;101097.09;5024126;28;20088;-71
2021/09/04 05:09:00;;;;;;;2.22;1.30;;;;;;;12.74;54.66;101104.88;5022917;28;20034;-71
2021/09/04 05:11:25;;;;;;;2.50;1.27;;;;;;;12.77;54.74;101104.88;5022563;28;20078;-71
2021/09/04 05:13:51;;;;;;;2.38;1.30;;;;;;;12.76;55.11;101108.34;5022649;28;20025;-69
2021/09/04 05:16:16;;;;;;;3.13;1.77;;;;;;;12.77;55.07;101110.09;5023751;28;20025;-70
2021/09/04 05:18:42;;;;;;;2.55;1.25;;;;;;;12.72;55.19;101109.22;5023746;28;20142;-70
2021/09/04 05:21:08;;;;;;;4.68;1.67;;;;;;;12.63;55.43;101102.34;5023838;28;20082;-70
2021/09/04 05:23:33;;;;;;;1.75;1.10;;;;;;;12.72;55.66;101114.44;5023853;28;20037;-71
2021/09/04 05:25:59;;;;;;;2.85;1.77;;;;;;;12.64;55.64;101128.41;5023891;28;20053;-71
2021/09/04 05:28:24;;;;;;;3.72;1.50;;;;;;;12.57;55.83;101121.47;5023689;28;20026;-71
2021/09/04 05:30:50;;;;;;;3.22;1.42;;;;;;;12.45;56.03;101121.53;5023821;28;20044;-71
2021/09/04 05:33:15;;;;;;;4.90;1.30;;;;;;;12.46;56.66;101131.94;5023546;28;20040;-71
2021/09/04 05:35:42;;;;;;;3.55;1.25;;;;;;;12.43;57.07;101131.97;5023805;28;20033;-72
2021/09/04 05:38:07;;;;;;;3.60;1.52;;;;;;;12.42;57.27;101126.75;5023441;28;20104;-71
2021/09/04 05:40:33;;;;;;;2.60;1.50;;;;;;;12.34;57.56;101119.88;5023695;28;20026;-71
2021/09/04 05:42:58;;;;;;;2.30;1.35;;;;;;;12.39;57.70;101133.72;5023614;28;20037;-70
2021/09/04 05:45:23;;;;;;;2.90;1.55;;;;;;;12.39;58.02;101132.84;5023660;28;20034;-70
2021/09/04 05:47:49;;;;;;;3.08;1.52;;;;;;;12.26;58.18;101113.81;5023264;28;20018;-69
2021/09/04 05:50:14;;;;;;;3.65;1.75;;;;;;;12.31;58.29;101130.28;5023502;28;20051;-70
2021/09/04 05:52:40;;;;;;;2.70;1.30;;;;;;;12.33;58.58;101130.28;5023934;28;20048;-70
2021/09/04 05:55:05;;;;;;;2.65;1.30;;;;;;;12.29;58.77;101129.41;5023935;28;20026;-70
2021/09/04 05:57:30;;;;;;;4.57;1.60;;;;;;;12.31;58.97;101130.28;5023713;28;20186;-71
2021/09/04 05:59:56;;;;;;;2.50;1.33;;;;;;;12.27;59.15;101123.34;5023614;28;20026;-71
2021/09/04 06:02:21;;;;;;;2.67;1.40;;;;;;;12.28;59.23;101130.31;5023442;28;20021;-71
2021/09/04 06:04:47;;;;;;;2.53;1.55;;;;;;;12.31;59.53;101138.09;5023614;28;20161;-71
2021/09/04 06:07:12;;;;;;;2.88;1.40;;;;;;;12.44;59.65;101140.66;5023434;28;20040;-71
2021/09/04 06:09:37;;;;;;;6.53;1.80;;;;;;;12.51;59.55;101140.59;5023560;28;20393;-71
2021/09/04 06:12:03;;;;;;;2.72;1.55;;;;;;;12.64;59.73;101144.03;5023458;28;20026;-72
2021/09/04 06:14:28;;;;;;;3.72;1.48;;;;;;;12.75;59.12;101149.16;5023326;28;20290;-71
2021/09/04 06:16:55;;;;;;;3.13;1.67;;;;;;;12.80;59.14;101143.94;5023203;28;20084;-71
2021/09/04 06:19:21;;;;;;;4.82;1.40;;;;;;;12.77;59.07;101142.22;5023290;28;20029;-72
2021/09/04 06:21:47;;;;;;;2.30;1.20;;;;;;;12.92;58.96;101147.34;5023257;28;20028;-71
2021/09/04 06:24:12;;;;;;;3.80;1.75;;;;;;;12.94;59.01;101150.81;5023775;28;20109;-72
2021/09/04 06:26:37;;;;;;;3.63;1.27;;;;;;;12.93;58.89;101149.94;5027178;28;20025;-72
2021/09/04 06:29:03;;;;;;;3.00;1.55;;;;;;;12.98;58.98;101158.59;5027361;28;20049;-71
2021/09/04 06:31:28;;;;;;;3.65;1.45;;;;;;;13.02;58.63;101152.47;5027401;28;20080;-71
2021/09/04 06:33:53;;;;;;;3.05;1.35;;;;;;;13.01;58.74;101152.50;5027055;28;20029;-72
2021/09/04 06:36:19;;;;;;;4.18;1.70;;;;;;;13.05;58.91;101156.81;5026855;28;20072;-72
2021/09/04 06:38:44;;;;;;;3.45;1.27;;;;;;;13.11;58.73;101159.38;5027285;28;20120;-71
2021/09/04 06:41:10;;;;;;;2.25;1.27;;;;;;;13.11;58.45;101169.81;5026900;28;20057;-71
2021/09/04 06:43:37;;;;;;;3.17;1.50;;;;;;;13.13;58.30;101162.00;5026933;28;20037;-70
2021/09/04 06:46:02;;;;;;;7.57;1.27;;;;;;;13.11;58.39;101162.00;5026763;28;20026;-71
2021/09/04 06:48:27;;;;;;;2.10;1.30;;;;;;;13.17;58.09;101160.19;5026347;28;20057;-69
2021/09/04 06:50:53;;;;;;;3.78;1.33;;;;;;;13.22;57.77;101176.69;5025417;28;20022;-70
2021/09/04 06:53:18;;;;;;;2.35;1.25;;;;;;;13.25;57.49;101179.28;5026784;28;20052;-69
2021/09/04 06:55:43;;;;;;;2.63;1.20;;;;;;;13.33;57.10;101174.88;5027076;28;20040;-69
2021/09/04 06:58:09;;;;;;;2.22;1.20;;;;;;;13.32;56.65;101167.91;5026596;28;20048;-70
2021/09/04 07:00:36;;;;;;;3.58;1.42;;;;;;;13.35;56.30;101177.47;5026561;28;20054;-67
2021/09/04 07:03:05;;;;;;;5.30;1.20;;;;;;;13.31;56.43;101181.84;5024902;28;20029;-69
2021/09/04 07:05:30;;;;;;;2.28;1.17;;;;;;;13.30;56.34;101187.94;5026542;28;20049;-68
2021/09/04 07:07:55;;;;;;;2.53;1.20;;;;;;;13.23;56.24;101181.88;5026431;28;20393;-69
2021/09/04 07:10:21;;;;;;;2.65;1.30;;;;;;;13.26;56.12;101181.88;5026349;28;20105;-69
2021/09/04 07:12:46;;;;;;;2.25;1.17;;;;;;;13.33;56.02;101193.13;5024544;28;20038;-69
2021/09/04 07:15:11;;;;;;;3.28;1.30;;;;;;;13.35;55.80;101196.59;5026337;28;20033;-69
2021/09/04 07:17:38;;;;;;;3.08;1.30;;;;;;;13.40;55.89;101196.56;5026197;28;20441;-70
2021/09/04 07:20:04;;;;;;;2.70;1.30;;;;;;;13.50;55.92;101202.56;5026438;28;20033;-67
2021/09/04 07:22:30;;;;;;;3.90;1.50;;;;;;;13.54;55.90;101196.47;5024996;28;20017;-70
2021/09/04 07:24:55;;;;;;;5.50;1.45;;;;;;;13.56;55.72;101186.88;5026234;28;20028;-71
2021/09/04 07:27:20;;;;;;;3.85;1.50;;;;;;;13.74;55.82;101203.25;5026088;28;20113;-69
2021/09/04 07:29:46;;;;;;;3.45;1.33;;;;;;;13.86;55.47;101192.72;5024868;28;20111;-69
2021/09/04 07:32:11;;;;;;;3.47;1.40;;;;;;;14.01;55.34;101198.66;5025696;28;20037;-69
2021/09/04 07:34:36;;;;;;;2.60;1.13;;;;;;;14.16;55.38;101196.75;5025921;28;20029;-70
2021/09/04 07:37:02;;;;;;;2.92;1.20;;;;;;;14.28;54.83;101188.78;5025701;28;20049;-69
2021/09/04 07:39:27;;;;;;;2.45;1.15;;;;;;;14.54;54.71;101191.97;5025669;28;20030;-70
2021/09/04 07:41:56;;;;;;;3.10;1.27;;;;;;;14.81;54.08;101197.78;5025862;28;20113;-67
2021/09/04 07:44:21;;;;;;;1.70;1.10;;;;;;;14.96;53.58;101201.94;5025792;28;20025;-69
2021/09/04 07:46:46;;;;;;;2.95;1.30;;;;;;;15.02;52.86;101208.81;5025686;28;20032;-71
2021/09/04 07:49:12;;;;;;;3.17;1.38;;;;;;;15.03;52.73;101210.56;5025758;28;20028;-66
2021/09/04 07:51:37;;;;;;;2.28;1.20;;;;;;;14.92;53.13;101208.09;5025659;28;20037;-68
2021/09/04 07:54:02;;;;;;;2.75;1.10;;;;;;;14.84;53.14;101206.44;5025976;28;20049;-69
2021/09/04 07:56:28;;;;;;;4.57;1.42;;;;;;;14.74;53.35;101199.59;5025675;28;20030;-69
2021/09/04 07:58:53;;;;;;;3.03;1.35;;;;;;;14.66;53.61;101206.66;5025857;28;20048;-67
2021/09/04 08:01:18;;;;;;;3.25;1.17;;;;;;;14.56;53.79;101208.50;5025513;28;20026;-68
2021/09/04 08:03:44;;;;;;;2.83;1.52;;;;;;;14.46;54.04;101211.22;5025192;28;20067;-68
2021/09/04 08:06:10;;;;;;;1.88;1.10;;;;;;;14.31;54.41;101207.06;5025707;28;20022;-68
2021/09/04 08:08:36;;;;;;;2.75;1.30;;;;;;;14.30;54.90;101205.31;5025328;28;20037;-69
2021/09/04 08:11:02;;;;;;;2.65;1.33;;;;;;;14.47;54.90;101212.94;5025361;28;20212;-68
2021/09/04 08:13:28;;;;;;;2.90;1.33;;;;;;;14.71;54.81;101220.53;5024915;28;20026;-69
2021/09/04 08:15:54;;;;;;;3.95;2.40;;;;;;;14.90;53.93;101228.16;5025121;28;20327;-68
2021/09/04 08:18:19;;;;;;;2.85;1.40;;;;;;;14.93;53.62;101221.16;5023643;28;20026;-69
2021/09/04 08:20:45;;;;;;;2.25;1.38;;;;;;;15.07;53.13;101223.56;5025280;28;20114;-68
2021/09/04 08:23:11;;;;;;;3.95;1.35;;;;;;;15.19;53.28;101211.19;5025083;28;20061;-67
2021/09/04 08:25:37;;;;;;;2.25;1.20;;;;;;;15.43;52.79;101219.56;5025194;28;20033;-67
2021/09/04 08:28:08;;;;;;;2.90;1.30;;;;;;;15.53;52.60;101228.97;5024966;28;20060;-69
2021/09/04 08:30:34;;;;;;;2.40;1.20;;;;;;;15.58;52.29;101223.66;5025064;28;20026;-69
2021/09/04 08:33:00;;;;;;;2.90;1.40;;;;;;;15.81;52.52;101227.66;5024526;28;20033;-68
2021/09/04 08:35:26;;;;;;;2.47;1.20;;;;;;;16.39;51.38;101230.13;5024858;28;20025;-68
2021/09/04 08:37:53;;;;;;;3.25;1.55;;;;;;;17.28;50.79;101236.16;5023359;28;20077;-68
2021/09/04 08:40:19;;;;;;;3.90;1.60;;;;;;;18.89;47.83;101231.06;5024879;28;20037;-69
2021/09/04 08:42:45;;;;;;;3.83;1.20;;;;;;;20.06;43.25;101227.38;5024810;28;20044;-69
2021/09/04 08:45:11;;;;;;;2.63;1.58;;;;;;;20.33;41.94;101221.16;5024772;28;20037;-68
2021/09/04 08:47:36;;;;;;;1.70;1.10;;;;;;;20.42;40.70;101223.44;5023925;28;20486;-68
2021/09/04 08:50:02;;;;;;;2.20;1.27;;;;;;;20.41;40.12;101217.34;5024805;28;20044;-67
2021/09/04 08:52:28;;;;;;;3.28;1.30;;;;;;;20.70;38.57;101225.06;5024955;28;20025;-67
2021/09/04 08:54:54;;;;;;;2.92;1.30;;;;;;;20.61;36.81;101230.66;5024575;28;20022;-68
2021/09/04 08:57:19;;;;;;;2.15;0.90;;;;;;;20.48;36.06;101232.94;5024304;28;20038;-68
2021/09/04 08:59:53;;;;;;;2.38;1.25;;;;;;;20.50;35.46;101226.66;5024676;28;20088;-68
2021/09/04 09:02:26;;;;;;;2.72;1.00;;;;;;;20.30;34.24;101230.88;5022845;28;20076;-68
2021/09/04 09:05:04;;;;;;;2.13;1.02;;;;;;;20.45;36.07;101225.97;5024432;28;20022;-68
2021/09/04 09:07:44;;;;;;;1.75;1.00;;;;;;;21.21;34.95;101234.56;5024097;28;20033;-68
2021/09/04 09:10:30;;;;;;;2.15;1.10;;;;;;;21.57;34.41;101231.34;5024394;28;20022;-69
2021/09/04 09:12:58;;;;;;;2.03;1.27;;;;;;;21.50;34.06;101230.72;5022735;28;20029;-68
2021/09/04 09:15:27;;;;;;;3.10;1.25;;;;;;;22.04;32.68;101234.69;5024193;28;20021;-69
2021/09/04 09:18:11;;;;;;;1.73;1.00;;;;;;;22.69;32.93;101241.53;5023647;28;20527;-69
2021/09/04 09:20:38;;;;;;;2.25;1.10;;;;;;;22.84;31.76;101241.75;5024072;28;20029;-68
2021/09/04 09:23:06;;;;;;;3.30;1.15;;;;;;;22.74;29.92;101249.25;5023985;28;20061;-68
2021/09/04 09:25:33;;;;;;;2.10;1.08;;;;;;;22.51;30.61;101248.50;5024201;28;20058;-68
2021/09/04 09:28:03;;;;;;;1.95;1.25;;;;;;;22.84;29.60;101253.22;5022525;28;20040;-67
2021/09/04 09:30:30;;;;;;;1.70;0.90;;;;;;;22.76;29.36;101260.66;5023799;28;20061;-67
2021/09/04 09:32:56;;;;;;;1.83;1.08;;;;;;;22.10;30.20;101254.72;5023457;28;20022;-68
2021/09/04 09:35:34;;;;;;;2.28;1.20;;;;;;;22.23;30.85;101258.56;5023783;28;20030;-67
2021/09/04 09:38:02;;;;;;;1.90;1.05;;;;;;;22.49;30.24;101251.22;5023481;28;20041;-68
2021/09/04 09:40:27;;;;;;;1.92;0.98;;;;;;;22.71;29.52;101265.28;5023534;28;20053;-68
2021/09/04 09:42:53;;;;;;;1.75;0.88;;;;;;;22.66;28.69;101262.84;5023637;28;20029;-68
2021/09/04 09:45:18;;;;;;;1.67;0.88;;;;;;;22.34;28.84;101262.50;5023620;28;20018;-67
2021/09/04 09:47:53;;;;;;;2.38;1.02;;;;;;;22.02;29.41;101268.28;5023225;28;20037;-68
2021/09/04 09:50:18;;;;;;;1.73;0.93;;;;;;;22.20;28.81;101261.34;5023607;28;20017;-67
2021/09/04 09:52:45;;;;;;;3.33;1.10;;;;;;;22.31;28.78;101268.78;5023661;28;20078;-67
2021/09/04 09:55:11;;;;;;;3.05;1.02;;;;;;;22.48;27.92;101261.84;5023492;28;20030;-67
2021/09/04 09:57:39;;;;;;;2.60;1.40;;;;;;;22.32;27.57;101261.72;5023431;28;20035;-67
2021/09/04 10:00:06;;;;;;;1.52;0.82;;;;;;;22.41;27.22;101262.16;5022020;28;20080;-67
2021/09/04 10:02:31;;;;;;;1.88;1.20;;;;;;;22.65;27.15;101261.16;5023418;28;20025;-69
2021/09/04 10:04:57;;;;;;;2.28;1.25;;;;;;;23.20;27.03;101256.81;5023477;28;20495;-69
2021/09/04 10:07:22;;;;;;;2.15;1.20;;;;;;;23.98;25.99;101266.25;5023404;28;20438;-67
2021/09/04 10:09:50;;;;;;;2.30;1.20;;;;;;;24.23;25.29;101262.31;5021804;28;20080;-68
2021/09/04 10:12:15;;;;;;;2.20;1.00;;;;;;;24.40;24.08;101263.25;5023455;28;20107;-68
2021/09/04 10:14:41;;;;;;;1.88;0.95;;;;;;;24.19;24.92;101259.91;5023249;28;20108;-70
2021/09/04 10:17:07;;;;;;;3.35;0.90;;;;;;;23.99;24.48;101261.81;5023425;28;20041;-67
2021/09/04 10:19:34;;;;;;;2.05;1.10;;;;;;;23.91;25.32;101264.84;5005572;28;20061;-68
2021/09/04 10:22:05;;;;;;;1.67;1.00;;;;;;;24.54;24.93;101259.84;5023747;28;20299;-68
2021/09/04 10:24:43;;;;;;;2.83;0.77;;;;;;;25.11;23.29;101257.66;5023673;28;20326;-68
2021/09/04 10:27:10;;;;;;;2.20;0.90;;;;;;;25.14;23.62;101262.81;5021781;28;20033;-68
2021/09/04 10:29:43;;;;;;;5.60;1.23;;;;;;;25.20;23.64;101261.59;5023579;28;20025;-69
2021/09/04 10:32:15;;;;;;;2.50;0.85;;;;;;;25.18;23.99;101256.38;5023376;28;20026;-68
2021/09/04 10:34:42;;;;;;;2.40;1.17;;;;;;;24.97;23.69;101251.31;5023121;28;20037;-69
2021/09/04 10:37:17;;;;;;;3.63;0.95;;;;;;;25.21;23.73;101248.22;5023174;28;20339;-68
2021/09/04 10:40:03;;;;;;;2.17;0.98;;;;;;;25.25;23.31;101252.44;5023361;28;20018;-68
2021/09/04 10:42:31;;;;;;;2.53;1.10;;;;;;;25.26;23.08;101245.28;5023483;28;20089;-69
2021/09/04 10:44:57;;;;;;;2.20;0.93;;;;;;;25.54;21.57;101248.16;5023093;28;20068;-68
2021/09/04 10:47:22;;;;;;;1.90;0.90;;;;;;;25.20;21.28;101246.50;5022771;28;20021;-68
2021/09/04 10:49:56;;;;;;;1.60;0.85;;;;;;;25.07;22.17;101250.81;5023326;28;20030;-70
2021/09/04 10:52:46;;;;;;;1.80;0.73;;;;;;;25.15;21.29;101253.88;5021689;28;20072;-68
2021/09/04 10:55:30;;;;;;;2.25;0.93;;;;;;;25.04;20.91;101262.47;5023114;28;20021;-68
2021/09/04 10:58:16;;;;;;;1.92;0.77;;;;;;;24.55;20.94;101263.34;5022997;28;20049;-69
2021/09/04 11:00:47;;;;;;;2.28;0.90;;;;;;;23.91;21.97;101259.56;5023105;28;20037;-68
2021/09/04 11:03:20;;;;;;;1.63;0.77;;;;;;;23.80;22.01;101267.19;5022952;28;20026;-68
2021/09/04 11:05:55;;;;;;;1.70;0.90;;;;;;;23.88;22.37;101267.66;5023238;28;20453;-67
2021/09/04 11:08:20;;;;;;;2.50;1.02;;;;;;;23.89;22.37;101258.78;5021527;28;20102;-68
2021/09/04 11:10:48;;;;;;;2.22;1.15;;;;;;;24.08;21.67;101250.72;5025490;28;20034;-68
2021/09/04 11:13:17;;;;;;;1.90;1.10;;;;;;;24.27;22.01;101257.72;5026982;28;20081;-69
2021/09/04 11:15:45;;;;;;;2.58;0.80;;;;;;;24.88;21.51;101255.34;5027265;28;20026;-66
2021/09/04 11:18:12;;;;;;;1.90;0.70;;;;;;;24.90;20.25;101257.06;5024588;28;20112;-68
2021/09/04 11:20:49;;;;;;;1.95;1.08;;;;;;;24.45;19.58;101265.66;5026487;28;20117;-67